Time;durP1;ratioP1;P1;durP2;ratioP2;P2;SDS_P1;SDS_P2;PMS_P1;PMS_P2;Temp;Humidity;BMP_temperature;BMP_pressure;BME280_temperature;BME280_humidity;BME280_pressure;Samples;Min_cycle;Max_cycle;Signal;HPM_P1;HPM_P2
2023/02/25 00:00:16;;;;;;;16.70;6.90;;;;;;;-1.29;100.00;99295.52;106046;1278;1003165;-69
2023/02/25 00:02:46;;;;;;;18.90;7.00;;;;;;;-1.30;100.00;99307.61;105943;1277;1003678;-70
2023/02/25 00:05:17;;;;;;;19.00;7.00;;;;;;;-1.33;100.00;99317.15;106769;1278;25535;-70
2023/02/25 00:07:50;;;;;;;18.10;7.00;;;;;;;-1.34;100.00;99329.11;106918;1276;25367;-68
2023/02/25 00:10:19;;;;;;;16.30;6.50;;;;;;;-1.35;100.00;99315.33;106852;1276;25297;-69
2023/02/25 00:12:47;;;;;;;19.60;7.30;;;;;;;-1.36;100.00;99329.02;106860;1276;25379;-70
2023/02/25 00:15:17;;;;;;;19.60;7.50;;;;;;;-1.38;100.00;99332.54;106935;1276;25384;-69
2023/02/25 00:17:48;;;;;;;18.70;7.40;;;;;;;-1.38;100.00;99349.73;106863;1276;25310;-70
2023/02/25 00:20:21;;;;;;;20.50;7.40;;;;;;;-1.39;100.00;99363.21;106865;1276;23293;-68
2023/02/25 00:22:52;;;;;;;19.60;7.60;;;;;;;-1.40;100.00;99378.17;106905;1276;25242;-69
2023/02/25 00:25:20;;;;;;;16.50;7.00;;;;;;;-1.42;100.00;99395.59;106815;1276;25515;-70
2023/02/25 00:27:50;;;;;;;20.40;8.10;;;;;;;-1.44;100.00;99398.77;106116;1276;1003659;-70
2023/02/25 00:30:19;;;;;;;18.30;7.80;;;;;;;-1.44;100.00;99415.40;106111;1276;1003240;-68
2023/02/25 00:32:48;;;;;;;16.90;7.40;;;;;;;-1.46;100.00;99310.54;106127;1276;1003076;-68
2023/02/25 00:35:17;;;;;;;20.10;7.20;;;;;;;-1.49;100.00;99257.71;106082;1276;1003419;-69
2023/02/25 00:37:46;;;;;;;17.70;7.50;;;;;;;-1.51;100.00;99277.80;105941;1276;1003402;-68
2023/02/25 00:40:15;;;;;;;19.00;7.60;;;;;;;-1.51;100.00;99287.39;106844;1276;25429;-69
2023/02/25 00:42:44;;;;;;;24.30;8.00;;;;;;;-1.51;100.00;99301.17;106861;1276;25408;-67
2023/02/25 00:45:13;;;;;;;19.40;7.30;;;;;;;-1.51;100.00;99313.55;106840;1276;24288;-69
2023/02/25 00:47:41;;;;;;;18.80;8.10;;;;;;;-1.50;100.00;99325.35;106859;1276;25444;-69
2023/02/25 00:50:13;;;;;;;18.40;7.80;;;;;;;-1.50;100.00;99371.11;106758;1276;25379;-67
2023/02/25 00:52:42;;;;;;;18.60;7.40;;;;;;;-1.49;100.00;99409.19;106934;1276;24228;-69
2023/02/25 00:55:14;;;;;;;17.10;7.30;;;;;;;-1.48;100.00;99452.63;106115;1276;1003570;-70
2023/02/25 00:57:43;;;;;;;19.30;8.00;;;;;;;-1.47;100.00;99495.51;106939;1276;26510;-71
2023/02/25 01:00:15;;;;;;;22.70;8.60;;;;;;;-1.47;100.00;99511.21;106863;1276;25379;-68
2023/02/25 01:02:44;;;;;;;18.80;7.70;;;;;;;-1.46;100.00;99538.27;106853;1276;22532;-68
2023/02/25 01:05:13;;;;;;;19.50;6.80;;;;;;;-1.46;100.00;99563.17;106105;1276;1003068;-67
2023/02/25 01:07:43;;;;;;;18.70;7.50;;;;;;;-1.47;100.00;99613.81;106885;1277;25441;-69
2023/02/25 01:10:12;;;;;;;18.40;7.60;;;;;;;-1.46;100.00;99695.63;106138;1278;1003095;-67
2023/02/25 01:12:47;;;;;;;18.60;7.40;;;;;;;-1.46;100.00;99749.90;106787;1278;26558;-70
2023/02/25 01:15:16;;;;;;;20.90;7.90;;;;;;;-1.46;100.00;99782.23;106857;1278;25428;-69
2023/02/25 01:17:44;;;;;;;20.10;7.30;;;;;;;-1.45;100.00;99796.66;106871;1278;24238;-68
2023/02/25 01:20:18;;;;;;;17.10;6.50;;;;;;;-1.44;100.00;99815.71;106883;1278;25253;-69
2023/02/25 01:22:47;;;;;;;16.60;7.00;;;;;;;-1.43;100.00;99838.05;106154;1278;1003733;-69
2023/02/25 01:25:24;;;;;;;19.50;7.40;;;;;;;-1.41;100.00;99855.99;106810;1278;25374;-69
2023/02/25 01:27:54;;;;;;;19.30;7.40;;;;;;;-1.39;100.00;99867.89;106830;1278;23912;-68
2023/02/25 01:30:24;;;;;;;15.40;6.50;;;;;;;-1.39;100.00;99873.48;106693;1278;25409;-68
2023/02/25 01:32:53;;;;;;;14.10;6.00;;;;;;;-1.35;100.00;99886.55;106829;1278;23913;-68
2023/02/25 01:35:21;;;;;;;16.20;7.00;;;;;;;-1.29;100.00;99898.73;106813;1278;24239;-68
2023/02/25 01:37:51;;;;;;;13.60;6.20;;;;;;;-1.25;100.00;99920.19;106869;1278;25319;-68
2023/02/25 01:40:20;;;;;;;16.60;6.90;;;;;;;-1.22;100.00;99929.05;106810;1278;25242;-69
2023/02/25 01:42:53;;;;;;;17.50;6.40;;;;;;;-1.21;100.00;99937.80;106115;1278;1003539;-70
2023/02/25 01:45:27;;;;;;;17.40;7.00;;;;;;;-1.20;100.00;99952.07;106826;1277;25403;-71
2023/02/25 01:48:17;;;;;;;17.80;6.80;;;;;;;-1.21;100.00;99965.71;106859;1277;25293;-68
2023/02/25 01:50:57;;;;;;;12.90;6.20;;;;;;;-1.19;100.00;99959.82;106884;1278;22539;-70
2023/02/25 01:53:34;;;;;;;17.70;7.40;;;;;;;-1.19;100.00;99967.06;106050;1277;1003209;-68
2023/02/25 01:56:03;;;;;;;15.10;6.50;;;;;;;-1.18;100.00;99971.20;106817;1278;22468;-68
2023/02/25 01:58:32;;;;;;;16.40;6.20;;;;;;;-1.17;100.00;99975.05;106622;1277;25456;-69
2023/02/25 02:01:01;;;;;;;14.30;6.20;;;;;;;-1.17;100.00;99973.43;106712;1277;24313;-68
2023/02/25 02:03:31;;;;;;;15.40;6.10;;;;;;;-1.15;100.00;99964.86;106089;1278;1003219;-68
2023/02/25 02:06:41;;;;;;;11.10;5.30;;;;;;;-1.14;100.00;99954.35;106787;1276;25201;-69
2023/02/25 02:09:16;;;;;;;15.50;6.10;;;;;;;-1.12;100.00;99937.45;106335;1284;22529;-68
2023/02/25 02:11:46;;;;;;;17.30;6.90;;;;;;;-1.11;100.00;99956.83;106221;1284;25314;-68
2023/02/25 02:14:20;;;;;;;15.90;6.70;;;;;;;-1.10;100.00;99960.45;106580;1276;25307;-71
2023/02/25 02:16:57;;;;;;;16.90;6.80;;;;;;;-1.09;100.00;99982.48;106092;1276;1003548;-69
2023/02/25 02:19:38;;;;;;;14.50;6.10;;;;;;;-1.07;100.00;100002.71;106878;1276;23771;-69
2023/02/25 02:22:55;;;;;;;16.00;6.90;;;;;;;-1.05;100.00;100020.83;106945;1276;24910;-69
2023/02/25 02:25:45;;;;;;;13.60;5.60;;;;;;;-1.02;100.00;100032.12;106455;1284;25455;-68
2023/02/25 02:28:26;;;;;;;15.80;5.90;;;;;;;-0.99;100.00;100053.02;106919;1276;26504;-69
2023/02/25 02:31:18;;;;;;;11.60;5.50;;;;;;;-0.96;100.00;100054.56;106874;1276;25242;-71
2023/02/25 02:33:56;;;;;;;17.00;5.90;;;;;;;-0.91;100.00;100048.79;106919;1276;22522;-68
2023/02/25 02:37:03;;;;;;;13.00;5.50;;;;;;;-0.87;100.00;100072.64;106917;1276;22929;-69
2023/02/25 02:39:44;;;;;;;13.30;5.70;;;;;;;-0.82;100.00;100075.85;106972;1276;25385;-70
2023/02/25 02:42:30;;;;;;;13.00;5.50;;;;;;;-0.78;100.00;100078.06;106896;1276;25339;-69
2023/02/25 02:45:38;;;;;;;12.40;5.30;;;;;;;-0.75;100.00;100070.98;106748;1276;22527;-69
2023/02/25 02:48:19;;;;;;;12.80;5.60;;;;;;;-0.73;100.00;100062.69;106859;1276;26696;-69
2023/02/25 02:50:55;;;;;;;14.40;5.80;;;;;;;-0.72;100.00;100090.04;107009;1276;23605;-68
2023/02/25 02:53:46;;;;;;;11.70;5.30;;;;;;;-0.72;100.00;100090.75;106959;1276;24211;-69
2023/02/25 02:56:16;;;;;;;13.50;5.70;;;;;;;-0.72;100.00;100096.94;106848;1276;22526;-70
2023/02/25 02:58:47;;;;;;;13.40;5.70;;;;;;;-0.73;100.00;100099.48;106876;1276;22651;-69
2023/02/25 03:01:30;;;;;;;13.70;5.90;;;;;;;-0.73;100.00;100095.65;106936;1276;25512;-70
2023/02/25 03:04:01;;;;;;;10.10;5.40;;;;;;;-0.75;100.00;100084.20;106955;1276;23770;-70
2023/02/25 03:06:33;;;;;;;10.00;5.30;;;;;;;-0.75;100.00;100061.74;106944;1276;25451;-68
2023/02/25 03:09:08;;;;;;;13.20;6.10;;;;;;;-0.76;100.00;100052.62;106785;1278;25429;-70
2023/02/25 03:11:37;;;;;;;12.90;5.20;;;;;;;-0.77;100.00;100044.69;106916;1278;26503;-69
2023/02/25 03:14:07;;;;;;;12.00;5.50;;;;;;;-0.78;100.00;100046.89;106015;1278;1002883;-72
2023/02/25 03:16:41;;;;;;;12.90;5.20;;;;;;;-0.78;100.00;100045.80;106921;1278;24405;-70
2023/02/25 03:19:14;;;;;;;13.80;5.80;;;;;;;-0.78;100.00;100042.79;106705;1278;25495;-71
2023/02/25 03:21:53;;;;;;;10.40;5.40;;;;;;;-0.77;100.00;100033.52;106872;1278;26624;-70
2023/02/25 03:24:49;;;;;;;8.10;4.80;;;;;;;-0.76;100.00;100022.69;106671;1278;25316;-70
2023/02/25 03:27:26;;;;;;;11.80;5.40;;;;;;;-0.74;100.00;100014.05;106011;1278;1002509;-71
2023/02/25 03:30:05;;;;;;;12.50;5.70;;;;;;;-0.72;100.00;100004.93;106919;1278;26500;-70
2023/02/25 03:32:34;;;;;;;11.90;4.90;;;;;;;-0.71;100.00;99998.48;106716;1278;26007;-71
2023/02/25 03:35:09;;;;;;;11.90;5.60;;;;;;;-0.70;100.00;99980.67;106774;1278;26495;-71
2023/02/25 03:37:40;;;;;;;12.80;6.10;;;;;;;-0.68;100.00;99971.88;106729;1278;24058;-70
2023/02/25 03:40:12;;;;;;;12.00;5.60;;;;;;;-0.66;100.00;99968.03;106989;1278;25304;-70
2023/02/25 03:43:05;;;;;;;10.20;5.10;;;;;;;-0.63;100.00;99973.00;106985;1278;26665;-70
2023/02/25 03:45:36;;;;;;;12.10;5.80;;;;;;;-0.61;100.00;99957.61;106774;1278;24308;-71
2023/02/25 03:48:05;;;;;;;13.40;5.80;;;;;;;-0.60;100.00;99958.05;106780;1278;22542;-70
2023/02/25 03:50:36;;;;;;;15.60;5.70;;;;;;;-0.59;100.00;99958.03;106638;1277;25418;-71
2023/02/25 03:53:27;;;;;;;15.10;6.00;;;;;;;-0.59;100.00;99934.15;106947;1278;24342;-71
2023/02/25 03:56:09;;;;;;;16.00;5.70;;;;;;;-0.60;100.00;99934.54;106976;1277;22644;-71
2023/02/25 03:58:41;;;;;;;13.70;5.50;;;;;;;-0.59;100.00;99929.17;106992;1278;22754;-70
2023/02/25 04:01:20;;;;;;;16.00;5.90;;;;;;;-0.59;100.00;99929.34;106709;1278;26519;-72
2023/02/25 04:03:49;;;;;;;19.20;7.50;;;;;;;-0.58;100.00;99917.58;106678;1278;25229;-72
2023/02/25 04:06:23;;;;;;;18.40;7.30;;;;;;;-0.56;100.00;99913.02;106920;1276;22537;-70
2023/02/25 04:08:53;;;;;;;20.70;7.90;;;;;;;-0.54;100.00;99902.42;106320;1276;1002902;-71
2023/02/25 04:11:23;;;;;;;22.50;8.90;;;;;;;-0.52;100.00;99903.56;107161;1276;22542;-69
2023/02/25 04:13:53;;;;;;;20.70;8.60;;;;;;;-0.51;100.00;99898.52;107050;1276;22527;-71
2023/02/25 04:16:22;;;;;;;18.00;8.10;;;;;;;-0.50;100.00;99893.67;106951;1276;25229;-70
2023/02/25 04:18:54;;;;;;;17.70;8.00;;;;;;;-0.48;100.00;99885.08;107114;1276;25310;-70
2023/02/25 04:21:34;;;;;;;17.90;8.10;;;;;;;-0.46;100.00;99882.65;107054;1276;23927;-71
2023/02/25 04:24:05;;;;;;;17.80;7.60;;;;;;;-0.46;100.00;99872.17;107218;1276;25432;-70
2023/02/25 04:26:34;;;;;;;16.00;7.20;;;;;;;-0.46;100.00;99876.38;107211;1276;24353;-69
2023/02/25 04:29:04;;;;;;;15.80;7.10;;;;;;;-0.45;100.00;99866.23;107151;1276;25443;-70
2023/02/25 04:31:35;;;;;;;19.20;7.50;;;;;;;-0.43;100.00;99864.13;107173;1276;26612;-71
2023/02/25 04:34:04;;;;;;;42.40;16.50;;;;;;;-0.42;100.00;99858.06;106397;1276;1015527;-71
2023/02/25 04:36:34;;;;;;;21.90;9.90;;;;;;;-0.38;100.00;99847.55;106977;1276;22650;-71
2023/02/25 04:39:04;;;;;;;24.30;9.50;;;;;;;-0.35;100.00;99848.73;106457;1276;1003021;-72
2023/02/25 04:41:34;;;;;;;28.10;11.30;;;;;;;-0.32;100.00;99842.87;107220;1276;22476;-70
2023/02/25 04:44:06;;;;;;;20.80;8.90;;;;;;;-0.31;100.00;99845.48;107405;1276;25307;-70
2023/02/25 04:46:37;;;;;;;23.60;10.20;;;;;;;-0.31;100.00;99846.55;106433;1276;1003641;-73
2023/02/25 04:49:07;;;;;;;25.40;10.90;;;;;;;-0.31;100.00;99838.58;107381;1276;22538;-72
2023/02/25 04:51:36;;;;;;;18.40;8.70;;;;;;;-0.30;100.00;99842.20;106660;1276;1005404;-72
2023/02/25 04:54:05;;;;;;;19.50;8.10;;;;;;;-0.28;100.00;99840.86;107374;1276;26511;-74
2023/02/25 04:56:35;;;;;;;23.20;11.30;;;;;;;-0.27;100.00;99832.79;107413;1270;22533;-72
2023/02/25 04:59:04;;;;;;;23.20;10.40;;;;;;;-0.27;100.00;99823.92;107539;1276;24157;-72
2023/02/25 05:01:32;;;;;;;25.20;11.70;;;;;;;-0.26;100.00;99823.67;107417;1276;24378;-72
2023/02/25 05:04:01;;;;;;;21.60;9.50;;;;;;;-0.24;100.00;99816.80;107446;1276;25293;-73
2023/02/25 05:06:31;;;;;;;17.60;8.00;;;;;;;-0.22;100.00;99812.23;107518;1278;26525;-71
2023/02/25 05:08:59;;;;;;;17.90;8.20;;;;;;;-0.20;100.00;99801.48;107451;1277;26799;-72
2023/02/25 05:11:29;;;;;;;17.30;7.80;;;;;;;-0.18;100.00;99800.23;107279;1278;26641;-71
2023/02/25 05:13:58;;;;;;;15.50;7.40;;;;;;;-0.16;100.00;99792.66;107299;1278;23868;-70
2023/02/25 05:16:26;;;;;;;17.40;7.50;;;;;;;-0.14;100.00;99786.88;107308;1278;22673;-72
2023/02/25 05:18:56;;;;;;;15.70;6.80;;;;;;;-0.12;100.00;99779.83;107297;1278;25440;-72
2023/02/25 05:21:25;;;;;;;14.60;6.10;;;;;;;-0.12;100.00;99774.48;107071;1278;22531;-72
2023/02/25 05:23:54;;;;;;;13.10;6.30;;;;;;;-0.10;100.00;99768.19;107146;1277;25432;-72
2023/02/25 05:26:23;;;;;;;20.60;7.50;;;;;;;-0.08;100.00;99754.05;107151;1267;22629;-71
2023/02/25 05:28:55;;;;;;;17.50;7.80;;;;;;;-0.07;100.00;99746.88;106595;1278;1002874;-72
2023/02/25 05:31:24;;;;;;;21.00;8.60;;;;;;;-0.06;100.00;99740.78;107202;1278;22665;-74
2023/02/25 05:33:53;;;;;;;21.50;9.20;;;;;;;-0.06;100.00;99733.35;107335;1278;26528;-72
2023/02/25 05:36:22;;;;;;;22.40;9.20;;;;;;;-0.06;100.00;99726.56;107163;1278;25430;-74
2023/02/25 05:38:57;;;;;;;24.60;12.50;;;;;;;-0.06;100.00;99714.71;107508;1278;23921;-72
2023/02/25 05:41:27;;;;;;;24.20;11.40;;;;;;;-0.06;100.00;99708.49;106578;1278;1003227;-72
2023/02/25 05:43:56;;;;;;;25.40;11.20;;;;;;;-0.06;100.00;99697.67;107269;1271;22527;-74
2023/02/25 05:46:25;;;;;;;30.40;13.20;;;;;;;-0.05;100.00;99684.71;107232;1278;24340;-72
2023/02/25 05:48:55;;;;;;;31.40;13.40;;;;;;;-0.04;100.00;99674.34;107150;1278;24183;-71
2023/02/25 05:51:24;;;;;;;36.00;16.30;;;;;;;-0.02;100.00;99667.79;107043;1278;22803;-70
2023/02/25 05:53:53;;;;;;;31.10;14.30;;;;;;;-0.01;100.00;99659.91;107005;1278;25246;-72
2023/02/25 05:56:23;;;;;;;32.00;14.60;;;;;;;0.01;100.00;99649.20;106206;1278;1003338;-71
2023/02/25 05:58:56;;;;;;;28.50;14.10;;;;;;;0.01;100.00;99635.67;106971;1278;23901;-70
2023/02/25 06:01:28;;;;;;;29.90;14.00;;;;;;;0.02;100.00;99625.55;106891;1278;25229;-70
2023/02/25 06:03:57;;;;;;;27.70;13.50;;;;;;;0.03;100.00;99611.50;106868;1277;25352;-71
2023/02/25 06:06:27;;;;;;;25.50;11.60;;;;;;;0.03;100.00;99600.81;107052;1276;22647;-71
2023/02/25 06:08:58;;;;;;;23.20;11.70;;;;;;;0.04;100.00;99587.29;107049;1276;26611;-71
2023/02/25 06:11:29;;;;;;;22.40;10.80;;;;;;;0.05;100.00;99581.73;107028;1276;22694;-72
2023/02/25 06:13:58;;;;;;;22.60;10.30;;;;;;;0.05;100.00;99570.71;106283;1276;1003172;-72
2023/02/25 06:16:30;;;;;;;22.60;10.00;;;;;;;0.06;100.00;99562.68;106916;1276;22709;-72
2023/02/25 06:19:01;;;;;;;24.70;9.90;;;;;;;0.07;100.00;99550.36;107037;1276;25440;-72
2023/02/25 06:21:33;;;;;;;24.40;9.10;;;;;;;0.08;100.00;99553.61;107135;1276;26515;-70
2023/02/25 06:24:03;;;;;;;20.40;9.20;;;;;;;0.11;100.00;99544.95;107113;1276;23106;-69
2023/02/25 06:26:40;;;;;;;22.00;9.00;;;;;;;0.12;100.00;99535.79;107071;1276;25512;-70
2023/02/25 06:29:09;;;;;;;19.50;8.40;;;;;;;0.13;100.00;99529.66;107019;1276;22532;-72
2023/02/25 06:31:39;;;;;;;20.10;9.00;;;;;;;0.15;100.00;99518.03;107204;1276;26495;-71
2023/02/25 06:34:08;;;;;;;17.90;8.00;;;;;;;0.16;100.00;99510.13;106988;1276;25239;-70
2023/02/25 06:36:36;;;;;;;20.10;8.10;;;;;;;0.16;100.00;99500.89;107159;1276;25427;-71
2023/02/25 06:39:07;;;;;;;20.20;9.20;;;;;;;0.17;100.00;99492.70;107059;1276;24276;-71
2023/02/25 06:41:36;;;;;;;21.10;8.50;;;;;;;0.16;100.00;99484.94;107114;1276;25428;-71
2023/02/25 06:44:05;;;;;;;24.30;9.20;;;;;;;0.16;100.00;99477.54;107016;1276;26528;-72
2023/02/25 06:46:35;;;;;;;22.70;8.80;;;;;;;0.14;100.00;99476.44;107095;1276;25436;-72
2023/02/25 06:49:06;;;;;;;22.40;8.70;;;;;;;0.14;100.00;99469.02;106750;1276;1003255;-70
2023/02/25 06:51:35;;;;;;;20.60;9.20;;;;;;;0.14;100.00;99461.23;106991;1276;23885;-72
2023/02/25 06:54:06;;;;;;;21.10;8.70;;;;;;;0.14;100.00;99452.48;107001;1276;26528;-69
2023/02/25 06:56:36;;;;;;;21.10;9.00;;;;;;;0.14;100.00;99448.25;106892;1276;25478;-68
2023/02/25 06:59:06;;;;;;;21.90;9.30;;;;;;;0.14;100.00;99437.78;106163;1276;1003102;-69
2023/02/25 07:01:36;;;;;;;21.60;9.00;;;;;;;0.14;100.00;99433.35;106147;1276;1003196;-69
2023/02/25 07:04:05;;;;;;;20.60;8.40;;;;;;;0.14;100.00;99424.48;106994;1276;25466;-69
2023/02/25 07:06:36;;;;;;;19.50;9.30;;;;;;;0.14;100.00;99423.09;107225;1275;25374;-70
2023/02/25 07:09:05;;;;;;;22.40;9.90;;;;;;;0.14;100.00;99413.67;107055;1276;24055;-70
2023/02/25 07:11:37;;;;;;;19.90;9.00;;;;;;;0.14;100.00;99413.50;106955;1272;25437;-71
2023/02/25 07:14:08;;;;;;;20.50;8.60;;;;;;;0.14;100.00;99405.73;106204;1276;1004213;-69
2023/02/25 07:16:36;;;;;;;18.20;8.30;;;;;;;0.14;100.00;99400.20;106852;1276;24260;-68
2023/02/25 07:19:08;;;;;;;20.30;8.70;;;;;;;0.15;100.00;99392.51;106819;1275;26498;-67
2023/02/25 07:21:37;;;;;;;20.80;8.40;;;;;;;0.17;100.00;99392.39;106849;1276;25316;-68
2023/02/25 07:24:06;;;;;;;18.60;7.40;;;;;;;0.18;100.00;99386.42;106814;1276;22530;-70
2023/02/25 07:26:38;;;;;;;16.00;7.90;;;;;;;0.20;100.00;99377.27;106715;1275;22627;-69
2023/02/25 07:29:07;;;;;;;16.50;8.00;;;;;;;0.22;100.00;99376.59;106735;1276;25438;-68
2023/02/25 07:31:36;;;;;;;16.50;8.10;;;;;;;0.25;100.00;99371.90;106778;1273;24209;-69
2023/02/25 07:34:07;;;;;;;18.80;8.70;;;;;;;0.28;100.00;99367.92;106730;1276;26569;-68
2023/02/25 07:36:37;;;;;;;19.50;8.30;;;;;;;0.31;100.00;99363.06;106754;1276;25310;-67
2023/02/25 07:39:08;;;;;;;19.00;8.50;;;;;;;0.32;100.00;99357.46;106118;1276;1002679;-68
2023/02/25 07:41:38;;;;;;;17.20;8.90;;;;;;;0.34;100.00;99356.62;106171;1273;1003794;-66
2023/02/25 07:44:11;;;;;;;19.00;8.50;;;;;;;0.37;100.00;99350.36;106040;1278;1003364;-67
2023/02/25 07:46:40;;;;;;;19.90;7.90;;;;;;;0.40;100.00;99348.89;105906;1275;1003850;-67
2023/02/25 07:49:09;;;;;;;19.90;8.50;;;;;;;0.43;100.00;99348.14;106734;1276;22528;-68
2023/02/25 07:51:42;;;;;;;21.30;8.70;;;;;;;0.47;100.00;99346.53;106731;1276;25408;-69
2023/02/25 07:54:11;;;;;;;21.70;8.40;;;;;;;0.51;100.00;99335.74;106778;1278;25256;-68
2023/02/25 07:56:39;;;;;;;17.80;8.50;;;;;;;0.55;100.00;99333.67;106805;1274;25329;-69
2023/02/25 07:59:08;;;;;;;17.20;7.70;;;;;;;0.59;100.00;99329.11;106856;1278;25542;-69
2023/02/25 08:01:38;;;;;;;17.30;7.30;;;;;;;0.63;100.00;99325.63;105878;1278;1002823;-69
2023/02/25 08:04:09;;;;;;;18.60;7.20;;;;;;;0.64;100.00;99325.14;106713;1276;25283;-68
2023/02/25 08:06:39;;;;;;;18.30;7.40;;;;;;;0.66;100.00;99311.33;106098;1275;1003047;-69
2023/02/25 08:09:09;;;;;;;19.80;8.70;;;;;;;0.69;100.00;99313.02;106793;1278;25294;-68
2023/02/25 08:11:45;;;;;;;20.80;7.70;;;;;;;0.72;100.00;99308.55;106690;1276;25249;-67
2023/02/25 08:14:14;;;;;;;17.80;8.10;;;;;;;0.76;100.00;99306.42;106877;1278;25245;-67
2023/02/25 08:16:42;;;;;;;19.90;8.00;;;;;;;0.81;100.00;99298.38;106987;1277;23898;-67
2023/02/25 08:19:11;;;;;;;21.50;9.50;;;;;;;0.85;100.00;99291.84;106799;1276;25337;-66
2023/02/25 08:21:41;;;;;;;23.60;10.30;;;;;;;0.87;100.00;99288.46;106524;1275;26528;-69
2023/02/25 08:24:12;;;;;;;20.80;10.70;;;;;;;0.89;100.00;99282.31;106630;1278;24079;-70
2023/02/25 08:26:41;;;;;;;16.60;8.00;;;;;;;0.89;100.00;99278.56;106578;1278;26114;-67
2023/02/25 08:29:10;;;;;;;12.50;6.40;;;;;;;0.89;100.00;99276.04;106854;1278;25571;-68
2023/02/25 08:31:39;;;;;;;13.60;6.90;;;;;;;0.90;100.00;99269.95;106748;1278;22534;-68
2023/02/25 08:34:08;;;;;;;16.30;7.20;;;;;;;0.91;100.00;99266.33;106771;1278;25357;-69
2023/02/25 08:36:38;;;;;;;16.70;7.80;;;;;;;0.92;100.00;99261.42;106663;1278;25512;-70
2023/02/25 08:39:07;;;;;;;17.60;7.80;;;;;;;0.95;100.00;99259.06;106627;1278;22570;-69
2023/02/25 08:41:38;;;;;;;21.00;9.20;;;;;;;1.00;100.00;99257.42;106591;1276;26516;-70
2023/02/25 08:44:07;;;;;;;20.20;8.40;;;;;;;1.04;100.00;99244.30;106771;1277;25808;-71
2023/02/25 08:46:36;;;;;;;19.50;8.30;;;;;;;1.09;100.00;99243.69;106227;1276;1002930;-70
2023/02/25 08:49:06;;;;;;;20.20;9.70;;;;;;;1.13;100.00;99238.02;106795;1276;22561;-71
2023/02/25 08:51:34;;;;;;;19.40;8.80;;;;;;;1.18;100.00;99237.80;107075;1277;25316;-71
2023/02/25 08:54:08;;;;;;;15.40;6.70;;;;;;;1.23;100.00;99234.70;107128;1276;26133;-70
2023/02/25 08:56:37;;;;;;;15.00;7.10;;;;;;;1.29;100.00;99231.48;107169;1276;22455;-68
2023/02/25 08:59:13;;;;;;;18.60;7.90;;;;;;;1.36;100.00;99233.77;107125;1276;22633;-67
2023/02/25 09:01:44;;;;;;;10.50;5.80;;;;;;;1.42;100.00;99233.66;107234;1276;22475;-68
2023/02/25 09:04:14;;;;;;;19.00;7.00;;;;;;;1.48;100.00;99234.84;106979;1275;25323;-69
2023/02/25 09:06:46;;;;;;;11.60;6.00;;;;;;;1.53;100.00;99239.21;107065;1253;24229;-69
2023/02/25 09:09:16;;;;;;;16.70;7.00;;;;;;;1.57;100.00;99243.68;106980;1276;22537;-68
2023/02/25 09:11:47;;;;;;;14.50;7.00;;;;;;;1.60;100.00;99244.17;107067;1276;24222;-68
2023/02/25 09:14:19;;;;;;;16.00;6.90;;;;;;;1.62;100.00;99253.58;106744;1277;26607;-68
2023/02/25 09:16:48;;;;;;;12.00;5.20;;;;;;;1.66;100.00;99252.53;106716;1276;24266;-69
2023/02/25 09:19:17;;;;;;;10.30;5.30;;;;;;;1.71;100.00;99254.02;106831;1276;22517;-68
2023/02/25 09:21:46;;;;;;;13.50;5.20;;;;;;;1.78;100.00;99254.86;107004;1277;26706;-69
2023/02/25 09:24:16;;;;;;;14.90;6.30;;;;;;;1.86;100.00;99255.16;107551;1276;25498;-67
2023/02/25 09:26:45;;;;;;;17.70;7.10;;;;;;;1.96;100.00;99250.06;107079;1276;22532;-68
2023/02/25 09:29:14;;;;;;;19.00;7.60;;;;;;;2.04;100.00;99246.34;107157;1276;22760;-69
2023/02/25 09:31:43;;;;;;;23.70;8.40;;;;;;;2.10;100.00;99233.71;107237;1276;22545;-69
2023/02/25 09:34:15;;;;;;;15.60;7.00;;;;;;;2.17;100.00;99232.41;107054;1276;22658;-68
2023/02/25 09:36:44;;;;;;;16.20;6.50;;;;;;;2.23;100.00;99227.58;106786;1272;24807;-69
2023/02/25 09:39:13;;;;;;;13.30;6.00;;;;;;;2.30;100.00;99222.86;107024;1276;25229;-69
2023/02/25 09:42:06;;;;;;;15.60;6.50;;;;;;;2.37;100.00;99221.35;106952;1276;26672;-68
2023/02/25 09:44:42;;;;;;;13.70;6.20;;;;;;;2.44;100.00;99211.84;106763;1278;25970;-70
2023/02/25 09:47:27;;;;;;;13.00;6.10;;;;;;;2.49;100.00;99210.27;106804;1278;25436;-70
2023/02/25 09:50:14;;;;;;;14.20;5.30;;;;;;;2.56;100.00;99207.41;106026;1279;1003575;-71
2023/02/25 09:53:01;;;;;;;16.70;6.70;;;;;;;2.59;100.00;99201.71;106840;1279;25881;-71
2023/02/25 09:55:31;;;;;;;15.20;6.70;;;;;;;2.66;100.00;99197.02;106202;1278;1002812;-71
2023/02/25 09:58:12;;;;;;;16.50;6.70;;;;;;;2.72;100.00;99192.01;106945;1279;25259;-69
2023/02/25 10:01:09;;;;;;;11.10;5.30;;;;;;;2.79;100.00;99193.14;106762;1279;26492;-69
2023/02/25 10:04:07;;;;;;;11.00;5.20;;;;;;;2.87;100.00;99197.95;107049;1278;26486;-66
2023/02/25 10:06:41;;;;;;;16.90;6.80;;;;;;;2.92;100.00;99208.16;107100;1273;26498;-69
2023/02/25 10:09:36;;;;;;;11.20;5.80;;;;;;;2.96;100.00;99207.05;107123;1278;22783;-69
2023/02/25 10:12:08;;;;;;;13.80;6.10;;;;;;;3.01;100.00;99201.39;106927;1274;26497;-69
2023/02/25 10:15:20;;;;;;;13.80;5.80;;;;;;;3.06;100.00;99202.20;107022;1279;25498;-69
2023/02/25 10:18:10;;;;;;;10.90;5.20;;;;;;;3.13;100.00;99202.63;106454;1278;22602;-72
2023/02/25 10:20:56;;;;;;;13.90;6.10;;;;;;;3.18;100.00;99208.75;106958;1273;23925;-69
2023/02/25 10:23:42;;;;;;;14.00;6.30;;;;;;;3.22;100.00;99207.65;106833;1278;26501;-66
2023/02/25 10:26:32;;;;;;;15.10;6.50;;;;;;;3.27;100.00;99200.96;106692;1276;23535;-68
2023/02/25 10:29:05;;;;;;;14.40;6.30;;;;;;;3.33;100.00;99206.61;106113;1272;1003189;-69
2023/02/25 10:31:33;;;;;;;10.20;5.20;;;;;;;3.39;100.00;99209.06;107032;1276;24219;-70
2023/02/25 10:34:24;;;;;;;13.30;6.00;;;;;;;3.46;100.00;99210.73;105907;1273;1002902;-69
2023/02/25 10:36:57;;;;;;;10.60;5.10;;;;;;;3.54;100.00;99212.00;106257;1272;1005486;-70
2023/02/25 10:39:30;;;;;;;13.50;5.50;;;;;;;3.60;100.00;99222.05;106979;1275;23392;-71
2023/02/25 10:41:59;;;;;;;14.20;6.60;;;;;;;3.66;100.00;99226.67;106969;1273;24224;-70
2023/02/25 10:44:28;;;;;;;14.00;6.20;;;;;;;3.71;100.00;99229.06;106440;1272;1002994;-69
2023/02/25 10:47:02;;;;;;;11.90;5.80;;;;;;;3.75;100.00;99236.02;106783;1272;25236;-69
2023/02/25 10:49:37;;;;;;;12.50;6.00;;;;;;;3.78;100.00;99246.89;106700;1275;22655;-71
2023/02/25 10:52:16;;;;;;;10.80;6.30;;;;;;;3.82;100.00;99250.50;105885;1272;1002404;-69
2023/02/25 10:54:50;;;;;;;11.60;5.60;;;;;;;3.85;100.00;99259.48;106931;1273;24315;-68
2023/02/25 10:57:24;;;;;;;11.70;5.90;;;;;;;3.88;100.00;99272.89;106667;1278;22642;-68
2023/02/25 11:00:04;;;;;;;13.80;6.20;;;;;;;3.91;100.00;99283.19;106838;1276;25444;-69
2023/02/25 11:02:41;;;;;;;13.10;5.50;;;;;;;3.92;100.00;99298.38;106829;1278;25258;-69
2023/02/25 11:05:30;;;;;;;13.10;6.10;;;;;;;3.94;100.00;99301.40;106672;1278;25357;-69
2023/02/25 11:07:59;;;;;;;14.10;6.10;;;;;;;3.97;100.00;99306.98;106852;1272;22566;-70
2023/02/25 11:10:27;;;;;;;17.60;7.10;;;;;;;3.98;100.00;99311.67;106673;1279;25265;-68
2023/02/25 11:12:59;;;;;;;14.60;5.80;;;;;;;3.98;100.00;99318.27;106719;1279;22548;-69
2023/02/25 11:15:28;;;;;;;13.80;6.80;;;;;;;4.00;100.00;99322.73;106671;1278;26528;-69
2023/02/25 11:18:25;;;;;;;13.40;6.10;;;;;;;4.03;100.00;99323.95;106589;1276;22529;-69
2023/02/25 11:20:58;;;;;;;12.80;6.20;;;;;;;4.06;100.00;99327.73;106713;1275;24247;-69
2023/02/25 11:23:32;;;;;;;14.20;6.50;;;;;;;4.10;100.00;99329.25;106020;1276;1003399;-67
2023/02/25 11:26:01;;;;;;;15.90;6.60;;;;;;;4.15;100.00;99330.42;106629;1276;22527;-68
2023/02/25 11:28:38;;;;;;;14.60;6.40;;;;;;;4.18;100.00;99330.89;106664;1276;25440;-68
2023/02/25 11:31:11;;;;;;;16.40;6.90;;;;;;;4.21;100.00;99332.54;106578;1278;22567;-68
2023/02/25 11:33:43;;;;;;;22.20;7.20;;;;;;;4.24;100.00;99337.23;106638;1278;22768;-68
2023/02/25 11:36:11;;;;;;;14.40;6.30;;;;;;;4.27;100.00;99336.43;106623;1276;22549;-68